sensor_id;sensor_type;location;lat;lon;timestamp;P1;durP1;ratioP1;P2;durP2;ratioP2
45392;SDS011;31129;44.810;10.334;2022-10-16T00:00:31;33.78;;;23.58;;
45392;SDS011;31129;44.810;10.334;2022-10-16T00:02:57;41.92;;;24.80;;
45392;SDS011;31129;44.810;10.334;2022-10-16T00:05:23;36.10;;;23.38;;
45392;SDS011;31129;44.810;10.334;2022-10-16T00:07:48;35.33;;;23.63;;
45392;SDS011;31129;44.810;10.334;2022-10-16T00:10:14;40.00;;;23.23;;
45392;SDS011;31129;44.810;10.334;2022-10-16T00:12:39;36.88;;;22.42;;
45392;SDS011;31129;44.810;10.334;2022-10-16T00:15:05;30.33;;;22.20;;
45392;SDS011;31129;44.810;10.334;2022-10-16T00:17:31;33.70;;;23.35;;
45392;SDS011;31129;44.810;10.334;2022-10-16T00:19:56;33.33;;;22.80;;
45392;SDS011;31129;44.810;10.334;2022-10-16T00:22:22;34.83;;;23.55;;
45392;SDS011;31129;44.810;10.334;2022-10-16T00:24:48;36.17;;;23.42;;
45392;SDS011;31129;44.810;10.334;2022-10-16T00:27:13;35.72;;;21.92;;
45392;SDS011;31129;44.810;10.334;2022-10-16T00:29:39;37.42;;;22.13;;
45392;SDS011;31129;44.810;10.334;2022-10-16T00:32:05;33.30;;;21.67;;
45392;SDS011;31129;44.810;10.334;2022-10-16T00:34:30;29.27;;;21.50;;
45392;SDS011;31129;44.810;10.334;2022-10-16T00:36:56;31.83;;;21.63;;
45392;SDS011;31129;44.810;10.334;2022-10-16T00:39:21;27.52;;;19.23;;
45392;SDS011;31129;44.810;10.334;2022-10-16T00:41:47;30.83;;;19.63;;
45392;SDS011;31129;44.810;10.334;2022-10-16T00:47:35;34.13;;;20.50;;
45392;SDS011;31129;44.810;10.334;2022-10-16T00:50:08;27.30;;;18.77;;
45392;SDS011;31129;44.810;10.334;2022-10-16T00:52:39;27.33;;;18.65;;
45392;SDS011;31129;44.810;10.334;2022-10-16T00:55:09;26.80;;;18.58;;
45392;SDS011;31129;44.810;10.334;2022-10-16T00:57:35;29.65;;;20.40;;
45392;SDS011;31129;44.810;10.334;2022-10-16T01:00:06;29.92;;;20.15;;
45392;SDS011;31129;44.810;10.334;2022-10-16T01:02:34;29.33;;;19.90;;
45392;SDS011;31129;44.810;10.334;2022-10-16T01:04:59;36.28;;;21.42;;
45392;SDS011;31129;44.810;10.334;2022-10-16T01:10:33;30.10;;;19.42;;
45392;SDS011;31129;44.810;10.334;2022-10-16T01:15:38;31.92;;;19.00;;
45392;SDS011;31129;44.810;10.334;2022-10-16T01:21:04;28.83;;;19.27;;
45392;SDS011;31129;44.810;10.334;2022-10-16T01:31:11;28.98;;;18.10;;
45392;SDS011;31129;44.810;10.334;2022-10-16T01:33:43;26.88;;;18.25;;
45392;SDS011;31129;44.810;10.334;2022-10-16T01:36:14;25.88;;;17.67;;
45392;SDS011;31129;44.810;10.334;2022-10-16T01:38:44;26.70;;;16.33;;
45392;SDS011;31129;44.810;10.334;2022-10-16T01:41:24;28.00;;;17.95;;
45392;SDS011;31129;44.810;10.334;2022-10-16T01:46:24;27.90;;;18.00;;
45392;SDS011;31129;44.810;10.334;2022-10-16T01:48:51;32.53;;;19.20;;
45392;SDS011;31129;44.810;10.334;2022-10-16T01:51:17;30.50;;;19.60;;
45392;SDS011;31129;44.810;10.334;2022-10-16T01:56:15;33.63;;;23.63;;
45392;SDS011;31129;44.810;10.334;2022-10-16T01:58:44;35.05;;;22.52;;
45392;SDS011;31129;44.810;10.334;2022-10-16T02:01:14;33.22;;;22.10;;
45392;SDS011;31129;44.810;10.334;2022-10-16T02:03:42;37.40;;;26.15;;
45392;SDS011;31129;44.810;10.334;2022-10-16T02:06:09;41.75;;;26.17;;
45392;SDS011;31129;44.810;10.334;2022-10-16T02:08:35;39.10;;;26.20;;
45392;SDS011;31129;44.810;10.334;2022-10-16T02:11:02;40.10;;;26.23;;
45392;SDS011;31129;44.810;10.334;2022-10-16T02:13:33;39.75;;;26.75;;
45392;SDS011;31129;44.810;10.334;2022-10-16T02:16:02;42.67;;;27.27;;
45392;SDS011;31129;44.810;10.334;2022-10-16T02:18:28;44.15;;;30.08;;
45392;SDS011;31129;44.810;10.334;2022-10-16T02:21:08;46.08;;;29.88;;
45392;SDS011;31129;44.810;10.334;2022-10-16T02:26:28;44.97;;;31.52;;
45392;SDS011;31129;44.810;10.334;2022-10-16T02:29:01;50.50;;;32.13;;
45392;SDS011;31129;44.810;10.334;2022-10-16T02:31:31;48.83;;;33.58;;
45392;SDS011;31129;44.810;10.334;2022-10-16T02:33:59;54.35;;;32.95;;
45392;SDS011;31129;44.810;10.334;2022-10-16T02:36:28;51.78;;;31.73;;
45392;SDS011;31129;44.810;10.334;2022-10-16T02:38:54;48.60;;;32.47;;
45392;SDS011;31129;44.810;10.334;2022-10-16T02:41:21;55.92;;;35.05;;
45392;SDS011;31129;44.810;10.334;2022-10-16T02:43:48;54.10;;;33.78;;
45392;SDS011;31129;44.810;10.334;2022-10-16T02:46:14;52.03;;;34.58;;
45392;SDS011;31129;44.810;10.334;2022-10-16T02:48:39;49.45;;;35.25;;
45392;SDS011;31129;44.810;10.334;2022-10-16T02:51:05;51.65;;;34.20;;
45392;SDS011;31129;44.810;10.334;2022-10-16T02:53:31;57.70;;;35.92;;
45392;SDS011;31129;44.810;10.334;2022-10-16T02:55:56;55.05;;;36.00;;
45392;SDS011;31129;44.810;10.334;2022-10-16T02:58:22;49.40;;;34.17;;
45392;SDS011;31129;44.810;10.334;2022-10-16T03:00:48;56.70;;;34.03;;
45392;SDS011;31129;44.810;10.334;2022-10-16T03:03:14;51.55;;;34.42;;
45392;SDS011;31129;44.810;10.334;2022-10-16T03:05:39;64.63;;;35.55;;
45392;SDS011;31129;44.810;10.334;2022-10-16T03:08:04;47.10;;;33.65;;
45392;SDS011;31129;44.810;10.334;2022-10-16T03:10:30;52.60;;;34.53;;
45392;SDS011;31129;44.810;10.334;2022-10-16T03:12:56;53.13;;;33.33;;
45392;SDS011;31129;44.810;10.334;2022-10-16T03:15:22;52.55;;;33.67;;
45392;SDS011;31129;44.810;10.334;2022-10-16T03:17:47;57.75;;;33.38;;
45392;SDS011;31129;44.810;10.334;2022-10-16T03:20:13;46.30;;;32.63;;
45392;SDS011;31129;44.810;10.334;2022-10-16T03:22:38;56.47;;;34.92;;
45392;SDS011;31129;44.810;10.334;2022-10-16T03:25:04;49.20;;;32.80;;
45392;SDS011;31129;44.810;10.334;2022-10-16T03:27:30;42.45;;;30.60;;
45392;SDS011;31129;44.810;10.334;2022-10-16T03:29:55;43.88;;;29.73;;
45392;SDS011;31129;44.810;10.334;2022-10-16T03:32:21;41.45;;;28.73;;
45392;SDS011;31129;44.810;10.334;2022-10-16T03:34:46;43.22;;;29.98;;
45392;SDS011;31129;44.810;10.334;2022-10-16T03:37:12;44.00;;;30.50;;
45392;SDS011;31129;44.810;10.334;2022-10-16T03:39:37;45.08;;;31.45;;
45392;SDS011;31129;44.810;10.334;2022-10-16T03:42:03;41.45;;;29.20;;
45392;SDS011;31129;44.810;10.334;2022-10-16T03:44:29;36.78;;;27.60;;
45392;SDS011;31129;44.810;10.334;2022-10-16T03:46:55;38.47;;;27.35;;
45392;SDS011;31129;44.810;10.334;2022-10-16T03:49:20;35.28;;;25.20;;
45392;SDS011;31129;44.810;10.334;2022-10-16T03:51:46;31.50;;;23.00;;
45392;SDS011;31129;44.810;10.334;2022-10-16T03:54:11;39.55;;;25.70;;
45392;SDS011;31129;44.810;10.334;2022-10-16T03:56:37;37.03;;;24.33;;
45392;SDS011;31129;44.810;10.334;2022-10-16T03:59:03;30.60;;;21.25;;
45392;SDS011;31129;44.810;10.334;2022-10-16T04:01:29;30.58;;;21.20;;
45392;SDS011;31129;44.810;10.334;2022-10-16T04:03:54;34.45;;;22.50;;
45392;SDS011;31129;44.810;10.334;2022-10-16T04:06:20;35.47;;;22.25;;
45392;SDS011;31129;44.810;10.334;2022-10-16T04:08:45;29.83;;;21.60;;
45392;SDS011;31129;44.810;10.334;2022-10-16T04:11:11;35.53;;;20.83;;
45392;SDS011;31129;44.810;10.334;2022-10-16T04:13:36;29.80;;;19.70;;
45392;SDS011;31129;44.810;10.334;2022-10-16T04:16:02;32.65;;;20.65;;
45392;SDS011;31129;44.810;10.334;2022-10-16T04:18:27;31.42;;;20.20;;
45392;SDS011;31129;44.810;10.334;2022-10-16T04:20:54;27.35;;;19.25;;
45392;SDS011;31129;44.810;10.334;2022-10-16T04:23:19;31.83;;;19.80;;
45392;SDS011;31129;44.810;10.334;2022-10-16T04:25:45;26.13;;;18.80;;
45392;SDS011;31129;44.810;10.334;2022-10-16T04:28:11;23.63;;;17.73;;
45392;SDS011;31129;44.810;10.334;2022-10-16T04:30:40;30.45;;;18.73;;
45392;SDS011;31129;44.810;10.334;2022-10-16T04:33:05;29.85;;;18.05;;
45392;SDS011;31129;44.810;10.334;2022-10-16T04:35:31;23.52;;;17.13;;
45392;SDS011;31129;44.810;10.334;2022-10-16T04:37:57;21.23;;;16.70;;
45392;SDS011;31129;44.810;10.334;2022-10-16T04:40:23;26.42;;;16.67;;
45392;SDS011;31129;44.810;10.334;2022-10-16T04:42:49;27.20;;;16.17;;
45392;SDS011;31129;44.810;10.334;2022-10-16T04:45:14;22.00;;;14.75;;
45392;SDS011;31129;44.810;10.334;2022-10-16T04:47:40;22.48;;;15.40;;
45392;SDS011;31129;44.810;10.334;2022-10-16T04:50:06;25.17;;;16.13;;
45392;SDS011;31129;44.810;10.334;2022-10-16T04:52:32;23.63;;;16.55;;
45392;SDS011;31129;44.810;10.334;2022-10-16T04:54:58;26.13;;;15.82;;
45392;SDS011;31129;44.810;10.334;2022-10-16T04:57:26;19.33;;;14.75;;
45392;SDS011;31129;44.810;10.334;2022-10-16T04:59:52;24.70;;;16.30;;
45392;SDS011;31129;44.810;10.334;2022-10-16T05:02:18;23.45;;;15.82;;
45392;SDS011;31129;44.810;10.334;2022-10-16T05:04:44;26.20;;;16.05;;
45392;SDS011;31129;44.810;10.334;2022-10-16T05:07:09;21.80;;;15.75;;
45392;SDS011;31129;44.810;10.334;2022-10-16T05:09:35;23.02;;;15.40;;
45392;SDS011;31129;44.810;10.334;2022-10-16T05:12:00;21.13;;;15.02;;
45392;SDS011;31129;44.810;10.334;2022-10-16T05:14:26;21.00;;;13.40;;
45392;SDS011;31129;44.810;10.334;2022-10-16T05:16:51;23.88;;;14.15;;
45392;SDS011;31129;44.810;10.334;2022-10-16T05:19:17;21.20;;;14.50;;
45392;SDS011;31129;44.810;10.334;2022-10-16T05:21:42;18.75;;;14.45;;
45392;SDS011;31129;44.810;10.334;2022-10-16T05:24:08;22.98;;;15.63;;
45392;SDS011;31129;44.810;10.334;2022-10-16T05:26:34;18.95;;;14.00;;
45392;SDS011;31129;44.810;10.334;2022-10-16T05:29:00;20.95;;;14.60;;
45392;SDS011;31129;44.810;10.334;2022-10-16T05:31:25;23.45;;;14.23;;
45392;SDS011;31129;44.810;10.334;2022-10-16T05:33:51;19.10;;;13.80;;
45392;SDS011;31129;44.810;10.334;2022-10-16T05:36:17;21.67;;;13.70;;
45392;SDS011;31129;44.810;10.334;2022-10-16T05:38:43;19.77;;;12.10;;
45392;SDS011;31129;44.810;10.334;2022-10-16T05:41:09;16.92;;;12.48;;
45392;SDS011;31129;44.810;10.334;2022-10-16T05:43:34;20.45;;;13.25;;
45392;SDS011;31129;44.810;10.334;2022-10-16T05:46:00;20.08;;;12.95;;
45392;SDS011;31129;44.810;10.334;2022-10-16T05:48:30;18.63;;;13.43;;
45392;SDS011;31129;44.810;10.334;2022-10-16T05:50:57;25.92;;;13.57;;
45392;SDS011;31129;44.810;10.334;2022-10-16T05:53:23;26.63;;;13.52;;
45392;SDS011;31129;44.810;10.334;2022-10-16T05:55:54;23.50;;;13.27;;
45392;SDS011;31129;44.810;10.334;2022-10-16T05:58:20;21.63;;;13.60;;
45392;SDS011;31129;44.810;10.334;2022-10-16T06:00:56;22.05;;;13.70;;
45392;SDS011;31129;44.810;10.334;2022-10-16T06:03:23;20.08;;;13.13;;
45392;SDS011;31129;44.810;10.334;2022-10-16T06:05:49;18.40;;;12.15;;
45392;SDS011;31129;44.810;10.334;2022-10-16T06:08:15;22.35;;;12.65;;
45392;SDS011;31129;44.810;10.334;2022-10-16T06:10:41;23.88;;;12.88;;
45392;SDS011;31129;44.810;10.334;2022-10-16T06:13:07;19.77;;;12.95;;
45392;SDS011;31129;44.810;10.334;2022-10-16T06:15:32;16.98;;;12.30;;
45392;SDS011;31129;44.810;10.334;2022-10-16T06:17:58;17.42;;;12.07;;
45392;SDS011;31129;44.810;10.334;2022-10-16T06:20:23;18.92;;;11.57;;
45392;SDS011;31129;44.810;10.334;2022-10-16T06:22:49;16.60;;;11.25;;
45392;SDS011;31129;44.810;10.334;2022-10-16T06:25:14;21.00;;;12.38;;
45392;SDS011;31129;44.810;10.334;2022-10-16T06:27:40;19.35;;;12.43;;
45392;SDS011;31129;44.810;10.334;2022-10-16T06:30:06;19.10;;;12.38;;
45392;SDS011;31129;44.810;10.334;2022-10-16T06:32:32;18.98;;;12.45;;
45392;SDS011;31129;44.810;10.334;2022-10-16T06:34:57;16.77;;;11.45;;
45392;SDS011;31129;44.810;10.334;2022-10-16T06:37:23;14.13;;;11.13;;
45392;SDS011;31129;44.810;10.334;2022-10-16T06:39:50;16.85;;;10.30;;
45392;SDS011;31129;44.810;10.334;2022-10-16T06:42:17;18.83;;;10.88;;
45392;SDS011;31129;44.810;10.334;2022-10-16T06:44:43;14.88;;;8.70;;
45392;SDS011;31129;44.810;10.334;2022-10-16T06:47:09;15.48;;;9.23;;
45392;SDS011;31129;44.810;10.334;2022-10-16T06:49:35;13.73;;;9.23;;
45392;SDS011;31129;44.810;10.334;2022-10-16T06:52:00;16.65;;;9.02;;
45392;SDS011;31129;44.810;10.334;2022-10-16T06:54:27;21.50;;;9.60;;
45392;SDS011;31129;44.810;10.334;2022-10-16T06:56:53;19.48;;;10.20;;
45392;SDS011;31129;44.810;10.334;2022-10-16T06:59:22;17.25;;;9.75;;
45392;SDS011;31129;44.810;10.334;2022-10-16T07:01:48;19.15;;;10.27;;
45392;SDS011;31129;44.810;10.334;2022-10-16T07:04:14;15.00;;;9.18;;
45392;SDS011;31129;44.810;10.334;2022-10-16T07:06:39;12.50;;;9.50;;
45392;SDS011;31129;44.810;10.334;2022-10-16T07:09:06;13.55;;;9.50;;
45392;SDS011;31129;44.810;10.334;2022-10-16T07:11:34;18.27;;;12.52;;
45392;SDS011;31129;44.810;10.334;2022-10-16T07:14:02;22.30;;;11.20;;
45392;SDS011;31129;44.810;10.334;2022-10-16T07:16:28;14.20;;;10.60;;
45392;SDS011;31129;44.810;10.334;2022-10-16T07:18:56;28.38;;;13.25;;
45392;SDS011;31129;44.810;10.334;2022-10-16T07:21:24;25.85;;;15.55;;
45392;SDS011;31129;44.810;10.334;2022-10-16T07:23:51;22.23;;;14.57;;
45392;SDS011;31129;44.810;10.334;2022-10-16T07:26:17;28.63;;;14.27;;
45392;SDS011;31129;44.810;10.334;2022-10-16T07:28:43;26.02;;;16.73;;
45392;SDS011;31129;44.810;10.334;2022-10-16T07:31:10;27.38;;;16.58;;
45392;SDS011;31129;44.810;10.334;2022-10-16T07:33:39;27.60;;;19.05;;
45392;SDS011;31129;44.810;10.334;2022-10-16T07:36:07;34.67;;;20.70;;
45392;SDS011;31129;44.810;10.334;2022-10-16T07:38:32;40.67;;;23.80;;
45392;SDS011;31129;44.810;10.334;2022-10-16T07:40:58;42.28;;;23.95;;
45392;SDS011;31129;44.810;10.334;2022-10-16T07:43:26;34.53;;;23.88;;
45392;SDS011;31129;44.810;10.334;2022-10-16T07:45:52;38.42;;;23.60;;
45392;SDS011;31129;44.810;10.334;2022-10-16T07:48:18;42.10;;;24.75;;
45392;SDS011;31129;44.810;10.334;2022-10-16T07:50:44;37.17;;;22.88;;
45392;SDS011;31129;44.810;10.334;2022-10-16T07:53:10;36.42;;;24.48;;
45392;SDS011;31129;44.810;10.334;2022-10-16T07:55:36;39.42;;;25.98;;
45392;SDS011;31129;44.810;10.334;2022-10-16T07:58:02;47.53;;;30.02;;
45392;SDS011;31129;44.810;10.334;2022-10-16T08:00:28;46.17;;;28.48;;
45392;SDS011;31129;44.810;10.334;2022-10-16T08:02:53;39.28;;;27.25;;
45392;SDS011;31129;44.810;10.334;2022-10-16T08:05:19;51.15;;;28.85;;
45392;SDS011;31129;44.810;10.334;2022-10-16T08:07:48;46.40;;;29.42;;
45392;SDS011;31129;44.810;10.334;2022-10-16T08:10:18;41.08;;;28.60;;
45392;SDS011;31129;44.810;10.334;2022-10-16T08:12:45;43.47;;;29.10;;
45392;SDS011;31129;44.810;10.334;2022-10-16T08:15:11;50.75;;;33.22;;
45392;SDS011;31129;44.810;10.334;2022-10-16T08:17:37;50.33;;;32.22;;
45392;SDS011;31129;44.810;10.334;2022-10-16T08:20:02;49.22;;;33.05;;
45392;SDS011;31129;44.810;10.334;2022-10-16T08:22:29;57.53;;;38.53;;
45392;SDS011;31129;44.810;10.334;2022-10-16T08:24:54;60.97;;;38.45;;
45392;SDS011;31129;44.810;10.334;2022-10-16T08:27:20;64.30;;;39.35;;
45392;SDS011;31129;44.810;10.334;2022-10-16T08:29:45;64.00;;;38.80;;
45392;SDS011;31129;44.810;10.334;2022-10-16T08:32:11;63.55;;;39.47;;
45392;SDS011;31129;44.810;10.334;2022-10-16T08:34:37;68.20;;;38.90;;
45392;SDS011;31129;44.810;10.334;2022-10-16T08:37:02;60.40;;;38.63;;
45392;SDS011;31129;44.810;10.334;2022-10-16T08:39:28;66.95;;;39.63;;
45392;SDS011;31129;44.810;10.334;2022-10-16T08:42:00;58.45;;;38.50;;
45392;SDS011;31129;44.810;10.334;2022-10-16T08:47:45;62.22;;;39.85;;
45392;SDS011;31129;44.810;10.334;2022-10-16T08:50:22;64.32;;;39.22;;
45392;SDS011;31129;44.810;10.334;2022-10-16T08:52:52;70.85;;;41.70;;
45392;SDS011;31129;44.810;10.334;2022-10-16T08:55:23;64.30;;;44.13;;
45392;SDS011;31129;44.810;10.334;2022-10-16T08:57:55;73.55;;;46.03;;
45392;SDS011;31129;44.810;10.334;2022-10-16T09:00:21;70.10;;;45.63;;
45392;SDS011;31129;44.810;10.334;2022-10-16T09:05:33;76.43;;;49.53;;
45392;SDS011;31129;44.810;10.334;2022-10-16T09:11:10;78.68;;;48.65;;
45392;SDS011;31129;44.810;10.334;2022-10-16T09:16:34;83.53;;;47.70;;
45392;SDS011;31129;44.810;10.334;2022-10-16T09:21:47;80.10;;;46.17;;
45392;SDS011;31129;44.810;10.334;2022-10-16T09:24:20;69.43;;;44.42;;
45392;SDS011;31129;44.810;10.334;2022-10-16T09:26:49;69.05;;;44.42;;
45392;SDS011;31129;44.810;10.334;2022-10-16T09:29:15;65.53;;;46.78;;
45392;SDS011;31129;44.810;10.334;2022-10-16T09:31:45;68.88;;;43.45;;
45392;SDS011;31129;44.810;10.334;2022-10-16T09:34:21;80.22;;;46.78;;
45392;SDS011;31129;44.810;10.334;2022-10-16T09:37:14;63.38;;;43.78;;
45392;SDS011;31129;44.810;10.334;2022-10-16T09:39:47;71.60;;;45.95;;
45392;SDS011;31129;44.810;10.334;2022-10-16T09:42:38;75.95;;;45.15;;
45392;SDS011;31129;44.810;10.334;2022-10-16T09:45:03;72.05;;;43.70;;
45392;SDS011;31129;44.810;10.334;2022-10-16T09:47:29;69.40;;;42.33;;
45392;SDS011;31129;44.810;10.334;2022-10-16T09:49:57;64.07;;;43.00;;
45392;SDS011;31129;44.810;10.334;2022-10-16T09:52:29;67.07;;;43.28;;
45392;SDS011;31129;44.810;10.334;2022-10-16T09:54:57;69.50;;;42.17;;
45392;SDS011;31129;44.810;10.334;2022-10-16T09:59:50;63.00;;;39.45;;
45392;SDS011;31129;44.810;10.334;2022-10-16T10:02:17;57.83;;;39.25;;
45392;SDS011;31129;44.810;10.334;2022-10-16T10:04:49;65.03;;;42.80;;
45392;SDS011;31129;44.810;10.334;2022-10-16T10:07:18;56.70;;;37.08;;
45392;SDS011;31129;44.810;10.334;2022-10-16T10:09:50;53.65;;;35.55;;
45392;SDS011;31129;44.810;10.334;2022-10-16T10:12:20;63.40;;;40.88;;
45392;SDS011;31129;44.810;10.334;2022-10-16T10:14:50;64.18;;;39.70;;
45392;SDS011;31129;44.810;10.334;2022-10-16T10:19:49;70.15;;;40.55;;
45392;SDS011;31129;44.810;10.334;2022-10-16T10:28:17;59.40;;;30.98;;
45392;SDS011;31129;44.810;10.334;2022-10-16T10:35:56;62.13;;;41.40;;
45392;SDS011;31129;44.810;10.334;2022-10-16T10:41:27;63.03;;;37.75;;
45392;SDS011;31129;44.810;10.334;2022-10-16T10:46:56;67.35;;;40.17;;
45392;SDS011;31129;44.810;10.334;2022-10-16T11:06:23;72.15;;;39.22;;
45392;SDS011;31129;44.810;10.334;2022-10-16T11:11:43;59.65;;;39.00;;
45392;SDS011;31129;44.810;10.334;2022-10-16T11:16:47;61.03;;;38.53;;
45392;SDS011;31129;44.810;10.334;2022-10-16T11:25:02;60.35;;;40.35;;
45392;SDS011;31129;44.810;10.334;2022-10-16T11:27:41;58.60;;;39.95;;
45392;SDS011;31129;44.810;10.334;2022-10-16T11:30:18;64.15;;;39.95;;
45392;SDS011;31129;44.810;10.334;2022-10-16T11:41:50;57.28;;;37.38;;
45392;SDS011;31129;44.810;10.334;2022-10-16T11:50:06;55.05;;;38.83;;
45392;SDS011;31129;44.810;10.334;2022-10-16T11:55:34;62.03;;;41.00;;
45392;SDS011;31129;44.810;10.334;2022-10-16T12:03:42;64.22;;;40.92;;
45392;SDS011;31129;44.810;10.334;2022-10-16T12:08:51;59.60;;;39.90;;
45392;SDS011;31129;44.810;10.334;2022-10-16T12:16:37;55.33;;;37.10;;
45392;SDS011;31129;44.810;10.334;2022-10-16T12:19:11;61.90;;;38.42;;
45392;SDS011;31129;44.810;10.334;2022-10-16T12:21:38;62.97;;;38.33;;
45392;SDS011;31129;44.810;10.334;2022-10-16T12:24:04;62.80;;;38.92;;
45392;SDS011;31129;44.810;10.334;2022-10-16T12:26:39;61.65;;;37.45;;
45392;SDS011;31129;44.810;10.334;2022-10-16T12:29:37;54.45;;;36.45;;
45392;SDS011;31129;44.810;10.334;2022-10-16T12:32:05;49.17;;;34.97;;
45392;SDS011;31129;44.810;10.334;2022-10-16T12:34:46;54.90;;;34.70;;
45392;SDS011;31129;44.810;10.334;2022-10-16T12:39:46;50.75;;;33.33;;
45392;SDS011;31129;44.810;10.334;2022-10-16T12:42:30;46.50;;;32.15;;
45392;SDS011;31129;44.810;10.334;2022-10-16T12:44:58;49.38;;;33.10;;
45392;SDS011;31129;44.810;10.334;2022-10-16T12:49:59;49.53;;;32.33;;
45392;SDS011;31129;44.810;10.334;2022-10-16T12:57:26;55.83;;;31.80;;
45392;SDS011;31129;44.810;10.334;2022-10-16T13:12:31;42.25;;;26.73;;
45392;SDS011;31129;44.810;10.334;2022-10-16T13:20:31;40.10;;;24.80;;
45392;SDS011;31129;44.810;10.334;2022-10-16T13:23:21;39.53;;;27.15;;
45392;SDS011;31129;44.810;10.334;2022-10-16T13:26:04;37.35;;;24.33;;
45392;SDS011;31129;44.810;10.334;2022-10-16T13:28:51;40.63;;;27.17;;
45392;SDS011;31129;44.810;10.334;2022-10-16T13:31:18;41.10;;;25.77;;
45392;SDS011;31129;44.810;10.334;2022-10-16T13:33:49;42.08;;;24.40;;
45392;SDS011;31129;44.810;10.334;2022-10-16T13:36:20;29.73;;;20.75;;
45392;SDS011;31129;44.810;10.334;2022-10-16T13:38:48;32.28;;;18.85;;
45392;SDS011;31129;44.810;10.334;2022-10-16T13:41:16;34.58;;;21.83;;
45392;SDS011;31129;44.810;10.334;2022-10-16T13:46:12;36.30;;;26.15;;
45392;SDS011;31129;44.810;10.334;2022-10-16T13:48:39;38.33;;;23.20;;
45392;SDS011;31129;44.810;10.334;2022-10-16T13:51:06;38.08;;;25.75;;
45392;SDS011;31129;44.810;10.334;2022-10-16T13:53:37;38.30;;;26.10;;
45392;SDS011;31129;44.810;10.334;2022-10-16T13:56:04;34.78;;;25.20;;
45392;SDS011;31129;44.810;10.334;2022-10-16T14:00:58;37.30;;;25.33;;
45392;SDS011;31129;44.810;10.334;2022-10-16T14:03:26;36.63;;;23.45;;
45392;SDS011;31129;44.810;10.334;2022-10-16T14:05:54;37.92;;;24.10;;
45392;SDS011;31129;44.810;10.334;2022-10-16T14:08:22;36.83;;;23.63;;
45392;SDS011;31129;44.810;10.334;2022-10-16T14:10:50;44.53;;;24.13;;
45392;SDS011;31129;44.810;10.334;2022-10-16T14:13:19;36.67;;;21.95;;
45392;SDS011;31129;44.810;10.334;2022-10-16T14:15:49;27.83;;;20.85;;
45392;SDS011;31129;44.810;10.334;2022-10-16T14:20:50;26.55;;;19.27;;
45392;SDS011;31129;44.810;10.334;2022-10-16T14:23:23;29.15;;;20.15;;
45392;SDS011;31129;44.810;10.334;2022-10-16T14:25:54;26.83;;;17.95;;
45392;SDS011;31129;44.810;10.334;2022-10-16T14:28:30;28.50;;;18.58;;
45392;SDS011;31129;44.810;10.334;2022-10-16T14:30:56;26.58;;;19.35;;
45392;SDS011;31129;44.810;10.334;2022-10-16T14:33:24;25.90;;;15.77;;
45392;SDS011;31129;44.810;10.334;2022-10-16T14:38:35;22.50;;;14.60;;
45392;SDS011;31129;44.810;10.334;2022-10-16T14:41:05;21.02;;;14.30;;
45392;SDS011;31129;44.810;10.334;2022-10-16T14:43:35;27.27;;;16.20;;
45392;SDS011;31129;44.810;10.334;2022-10-16T14:46:03;24.88;;;14.70;;
45392;SDS011;31129;44.810;10.334;2022-10-16T14:48:46;20.88;;;13.25;;
45392;SDS011;31129;44.810;10.334;2022-10-16T14:51:17;25.23;;;12.10;;
45392;SDS011;31129;44.810;10.334;2022-10-16T14:53:43;18.40;;;10.50;;
45392;SDS011;31129;44.810;10.334;2022-10-16T14:56:17;20.35;;;10.90;;
45392;SDS011;31129;44.810;10.334;2022-10-16T14:58:44;18.20;;;11.23;;
45392;SDS011;31129;44.810;10.334;2022-10-16T15:01:09;22.60;;;12.20;;
45392;SDS011;31129;44.810;10.334;2022-10-16T15:03:37;18.77;;;11.70;;
45392;SDS011;31129;44.810;10.334;2022-10-16T15:06:03;17.98;;;10.98;;
45392;SDS011;31129;44.810;10.334;2022-10-16T15:08:28;22.08;;;11.13;;
45392;SDS011;31129;44.810;10.334;2022-10-16T15:10:54;19.67;;;9.98;;
45392;SDS011;31129;44.810;10.334;2022-10-16T15:13:20;12.80;;;8.68;;
45392;SDS011;31129;44.810;10.334;2022-10-16T15:15:46;14.18;;;9.25;;
45392;SDS011;31129;44.810;10.334;2022-10-16T15:18:18;13.02;;;9.00;;
45392;SDS011;31129;44.810;10.334;2022-10-16T15:20:50;14.07;;;9.68;;
45392;SDS011;31129;44.810;10.334;2022-10-16T15:23:17;16.58;;;8.85;;
45392;SDS011;31129;44.810;10.334;2022-10-16T15:28:12;15.93;;;8.95;;
45392;SDS011;31129;44.810;10.334;2022-10-16T15:30:39;21.50;;;10.25;;
45392;SDS011;31129;44.810;10.334;2022-10-16T15:33:10;18.58;;;9.63;;
45392;SDS011;31129;44.810;10.334;2022-10-16T15:35:38;19.17;;;10.00;;
45392;SDS011;31129;44.810;10.334;2022-10-16T15:38:03;16.92;;;9.02;;
45392;SDS011;31129;44.810;10.334;2022-10-16T15:40:29;14.05;;;9.40;;
45392;SDS011;31129;44.810;10.334;2022-10-16T15:42:54;16.58;;;9.27;;
45392;SDS011;31129;44.810;10.334;2022-10-16T15:45:20;16.55;;;9.35;;
45392;SDS011;31129;44.810;10.334;2022-10-16T15:47:46;16.42;;;9.30;;
45392;SDS011;31129;44.810;10.334;2022-10-16T15:50:24;18.08;;;9.02;;
45392;SDS011;31129;44.810;10.334;2022-10-16T15:52:50;12.85;;;9.02;;
45392;SDS011;31129;44.810;10.334;2022-10-16T15:55:16;17.13;;;9.88;;
45392;SDS011;31129;44.810;10.334;2022-10-16T15:57:42;20.52;;;10.20;;
45392;SDS011;31129;44.810;10.334;2022-10-16T16:00:12;14.30;;;8.75;;
45392;SDS011;31129;44.810;10.334;2022-10-16T16:02:40;14.48;;;9.07;;
45392;SDS011;31129;44.810;10.334;2022-10-16T16:05:07;16.17;;;10.63;;
45392;SDS011;31129;44.810;10.334;2022-10-16T16:07:34;16.25;;;10.00;;
45392;SDS011;31129;44.810;10.334;2022-10-16T16:10:00;14.23;;;8.97;;
45392;SDS011;31129;44.810;10.334;2022-10-16T16:12:26;19.25;;;10.15;;
45392;SDS011;31129;44.810;10.334;2022-10-16T16:14:52;21.05;;;10.98;;
45392;SDS011;31129;44.810;10.334;2022-10-16T16:17:18;18.92;;;10.10;;
45392;SDS011;31129;44.810;10.334;2022-10-16T16:19:43;20.38;;;9.43;;
45392;SDS011;31129;44.810;10.334;2022-10-16T16:22:08;12.60;;;10.05;;
45392;SDS011;31129;44.810;10.334;2022-10-16T16:24:34;21.42;;;10.27;;
45392;SDS011;31129;44.810;10.334;2022-10-16T16:27:00;16.27;;;10.93;;
45392;SDS011;31129;44.810;10.334;2022-10-16T16:29:25;15.55;;;10.73;;
45392;SDS011;31129;44.810;10.334;2022-10-16T16:31:51;15.25;;;10.00;;
45392;SDS011;31129;44.810;10.334;2022-10-16T16:34:28;21.90;;;11.00;;
45392;SDS011;31129;44.810;10.334;2022-10-16T16:36:54;21.65;;;10.63;;
45392;SDS011;31129;44.810;10.334;2022-10-16T16:39:20;17.40;;;10.68;;
45392;SDS011;31129;44.810;10.334;2022-10-16T16:41:46;20.30;;;10.65;;
45392;SDS011;31129;44.810;10.334;2022-10-16T16:44:12;17.48;;;10.73;;
45392;SDS011;31129;44.810;10.334;2022-10-16T16:46:42;17.98;;;9.93;;
45392;SDS011;31129;44.810;10.334;2022-10-16T16:49:09;18.88;;;11.40;;
45392;SDS011;31129;44.810;10.334;2022-10-16T16:51:36;19.67;;;10.70;;
45392;SDS011;31129;44.810;10.334;2022-10-16T16:54:02;13.15;;;10.20;;
45392;SDS011;31129;44.810;10.334;2022-10-16T16:56:28;17.20;;;10.95;;
45392;SDS011;31129;44.810;10.334;2022-10-16T16:58:54;19.50;;;11.50;;